Time;durP1;ratioP1;P1;durP2;ratioP2;P2;SDS_P1;SDS_P2;PMS_P1;PMS_P2;Temp;Humidity;BMP_temperature;BMP_pressure;BME280_temperature;BME280_humidity;BME280_pressure;Samples;Min_cycle;Max_cycle;Signal;HPM_P1;HPM_P2
2020/12/31 00:00:13;;;;;;;;;;;;;;;19.96;70.88;100342.16;5073986;28;1181;-65
2020/12/31 00:02:38;;;;;;;;;;;;;;;20.00;70.74;100332.81;5067242;28;1463;-59
2020/12/31 00:05:04;;;;;;;;;;;;;;;20.06;70.94;100326.00;5073606;28;1213;-59
2020/12/31 00:07:29;;;;;;;;;;;;;;;19.98;70.89;100323.25;5073463;28;1959;-59
2020/12/31 00:09:55;;;;;;;;;;;;;;;19.97;70.50;100343.00;5069531;28;1231;-60
2020/12/31 00:12:20;;;;;;;;;;;;;;;19.99;70.86;100330.28;5064469;28;1319;-65
2020/12/31 00:14:46;;;;;;;;;;;;;;;19.97;70.79;100327.75;5073655;28;1185;-66
2020/12/31 00:17:11;;;;;;;;;;;;;;;19.62;72.41;100323.16;5073482;28;1237;-59
2020/12/31 00:19:37;;;;;;;;;;;;;;;19.47;73.05;100320.97;5071930;28;1252;-65
2020/12/31 00:22:02;;;;;;;;;;;;;;;19.47;73.52;100331.69;5073302;28;1119;-66
2020/12/31 00:24:27;;;;;;;;;;;;;;;19.50;73.68;100335.94;5066094;28;1434;-65
2020/12/31 00:26:53;;;;;;;;;;;;;;;19.50;73.34;100329.69;5090334;28;1686;-60
2020/12/31 00:29:18;;;;;;;;;;;;;;;19.44;73.24;100340.06;5091533;28;1914;-65
2020/12/31 00:31:44;;;;;;;;;;;;;;;19.48;73.29;100335.25;5078263;28;1647;-60
2020/12/31 00:34:09;;;;;;;;;;;;;;;19.53;72.80;100342.84;5078619;28;816;-65
2020/12/31 00:36:34;;;;;;;;;;;;;;;19.52;72.86;100328.59;5074843;28;1214;-60
2020/12/31 00:39:00;;;;;;;;;;;;;;;19.54;72.80;100336.50;5074770;28;1317;-64
2020/12/31 00:41:26;;;;;;;;;;;;;;;19.46;72.80;100319.28;5078175;28;1297;-60
2020/12/31 00:43:51;;;;;;;;;;;;;;;19.48;72.18;100303.91;5074353;28;1511;-64
2020/12/31 00:46:16;;;;;;;;;;;;;;;19.46;72.53;100311.25;5083308;28;1476;-64
2020/12/31 00:48:42;;;;;;;;;;;;;;;19.45;72.42;100327.47;5078379;28;1959;-65
2020/12/31 00:51:07;;;;;;;;;;;;;;;19.43;72.21;100314.22;5078107;28;1262;-65
2020/12/31 00:53:33;;;;;;;;;;;;;;;19.42;72.38;100325.13;5069900;28;1648;-60
2020/12/31 00:55:58;;;;;;;;;;;;;;;19.39;72.08;100328.06;5071388;28;1144;-60
2020/12/31 00:58:24;;;;;;;;;;;;;;;19.33;72.15;100318.78;5066558;28;1747;-64
2020/12/31 01:00:49;;;;;;;;;;;;;;;19.37;72.09;100325.53;5077903;28;1821;-59
2020/12/31 01:03:15;;;;;;;;;;;;;;;19.35;71.94;100327.53;5076674;28;1278;-64
2020/12/31 01:05:41;;;;;;;;;;;;;;;19.37;71.63;100330.91;5078345;28;805;-60
2020/12/31 01:08:06;;;;;;;;;;;;;;;19.35;71.83;100311.44;5077789;28;1961;-65
2020/12/31 01:10:31;;;;;;;;;;;;;;;19.35;71.98;100318.66;5091601;28;1057;-60
2020/12/31 01:12:57;;;;;;;;;;;;;;;19.30;71.85;100313.75;5097284;28;1741;-59
2020/12/31 01:15:22;;;;;;;;;;;;;;;19.34;71.56;100331.22;5078134;28;867;-63
2020/12/31 01:17:48;;;;;;;;;;;;;;;19.28;71.59;100321.09;5077815;28;851;-59
2020/12/31 01:20:13;;;;;;;;;;;;;;;19.31;71.68;100318.09;5077793;28;809;-65
2020/12/31 01:22:38;;;;;;;;;;;;;;;19.28;71.53;100321.09;5077754;28;809;-64
2020/12/31 01:25:04;;;;;;;;;;;;;;;19.28;71.58;100307.69;5071776;28;1544;-64
2020/12/31 01:27:29;;;;;;;;;;;;;;;19.25;71.64;100308.81;5076600;28;2005;-59
2020/12/31 01:29:55;;;;;;;;;;;;;;;19.23;71.62;100308.09;5064214;28;811;-60
2020/12/31 01:32:21;;;;;;;;;;;;;;;19.19;71.69;100311.25;5057534;28;894;-60
2020/12/31 01:34:46;;;;;;;;;;;;;;;19.18;72.01;100314.91;5057623;28;729;-64
2020/12/31 01:37:12;;;;;;;;;;;;;;;19.22;71.47;100300.25;5072516;28;1521;-64
2020/12/31 01:39:37;;;;;;;;;;;;;;;19.24;71.42;100319.69;5077679;28;860;-59
2020/12/31 01:42:03;;;;;;;;;;;;;;;19.23;71.13;100309.94;5077179;28;796;-60
2020/12/31 01:44:28;;;;;;;;;;;;;;;19.23;71.34;100301.91;5067518;28;1785;-60
2020/12/31 01:46:57;;;;;;;;;;;;;;;19.18;71.23;100296.13;5061969;28;1092;-60
2020/12/31 01:49:23;;;;;;;;;;;;;;;19.19;71.03;100295.16;5076798;28;1881;-64
2020/12/31 01:51:49;;;;;;;;;;;;;;;19.19;71.23;100289.81;5076889;28;1455;-64
2020/12/31 01:54:16;;;;;;;;;;;;;;;19.17;71.25;100297.16;5076836;28;1345;-59
2020/12/31 01:56:42;;;;;;;;;;;;;;;19.18;71.03;100293.47;5076629;28;1317;-61
2020/12/31 01:59:07;;;;;;;;;;;;;;;19.16;71.22;100290.06;5076277;28;1417;-63
2020/12/31 02:01:33;;;;;;;;;;;;;;;19.10;71.34;100291.53;5076566;28;1423;-62
2020/12/31 02:03:59;;;;;;;;;;;;;;;19.10;71.32;100272.78;5076063;28;1334;-60
2020/12/31 02:06:25;;;;;;;;;;;;;;;19.08;71.14;100266.72;5076507;28;1326;-63
2020/12/31 02:08:51;;;;;;;;;;;;;;;19.04;71.15;100268.84;5071858;28;1897;-61
2020/12/31 02:11:17;;;;;;;;;;;;;;;19.08;71.08;100266.72;5076443;28;1304;-60
2020/12/31 02:13:43;;;;;;;;;;;;;;;19.06;70.75;100258.00;5076084;28;1491;-60
2020/12/31 02:16:13;;;;;;;;;;;;;;;19.06;70.96;100253.47;5076219;28;1430;-63
2020/12/31 02:18:56;;;;;;;;;;;;;;;19.03;70.82;100251.06;5076592;28;1171;-60
2020/12/31 02:21:23;;;;;;;;;;;;;;;19.04;70.76;100266.16;5066057;28;1247;-60
2020/12/31 02:23:49;;;;;;;;;;;;;;;19.05;70.76;100267.00;5076261;28;1322;-63
2020/12/31 02:26:14;;;;;;;;;;;;;;;19.03;70.74;100275.19;5076034;28;1329;-63
2020/12/31 02:28:40;;;;;;;;;;;;;;;19.00;70.71;100248.72;5076340;28;1967;-64
2020/12/31 02:31:05;;;;;;;;;;;;;;;18.98;70.70;100250.69;5072434;28;1275;-64
2020/12/31 02:33:31;;;;;;;;;;;;;;;19.00;70.62;100256.75;5075885;28;1183;-64
2020/12/31 02:35:56;;;;;;;;;;;;;;;19.00;70.62;100243.34;5075998;28;1329;-60
2020/12/31 02:38:22;;;;;;;;;;;;;;;18.96;71.53;100247.31;5075696;28;1409;-60
2020/12/31 02:40:47;;;;;;;;;;;;;;;18.96;71.89;100255.34;5075782;28;1413;-60
2020/12/31 02:43:12;;;;;;;;;;;;;;;18.93;71.48;100236.88;5075772;28;1401;-60
2020/12/31 02:45:38;;;;;;;;;;;;;;;18.89;71.60;100246.22;5075847;28;1262;-60
2020/12/31 02:48:03;;;;;;;;;;;;;;;18.85;71.68;100245.66;5075834;28;1890;-64
2020/12/31 02:50:29;;;;;;;;;;;;;;;18.85;71.50;100250.16;5075989;28;1317;-61
2020/12/31 02:52:54;;;;;;;;;;;;;;;18.79;71.00;100227.50;5087830;28;1333;-60
2020/12/31 02:55:19;;;;;;;;;;;;;;;18.86;71.16;100242.00;5075734;28;1337;-60
2020/12/31 02:57:45;;;;;;;;;;;;;;;18.90;70.95;100249.72;5075258;28;1485;-60
2020/12/31 03:02:53;;;;;;;;;;;;;;;18.93;70.47;100215.44;4360446;26;1678;-48
2020/12/31 03:05:18;;;;;;;;;;;;;;;18.90;70.49;100231.84;5034118;28;1356;-49
2020/12/31 03:07:44;;;;;;;;;;;;;;;18.95;70.34;100217.97;5033639;28;1977;-48
2020/12/31 03:12:38;;;;;;;;;;;;;;;18.96;70.11;100235.72;5026748;28;1326;-61
2020/12/31 03:15:10;;;;;;;;;;;;;;;18.93;70.14;100247.59;5030993;28;1475;-61
2020/12/31 03:17:36;;;;;;;;;;;;;;;18.93;69.97;100230.69;5033445;28;1172;-64
2020/12/31 03:20:02;;;;;;;;;;;;;;;18.94;70.14;100238.59;5032106;28;1255;-64
2020/12/31 03:22:27;;;;;;;;;;;;;;;18.93;70.13;100222.66;5031895;28;1208;-64
2020/12/31 03:24:53;;;;;;;;;;;;;;;18.95;69.58;100218.81;5028785;28;1363;-61
2020/12/31 03:27:18;;;;;;;;;;;;;;;18.94;70.40;100210.91;5032041;28;1918;-61
2020/12/31 03:29:44;;;;;;;;;;;;;;;18.96;70.26;100208.94;5045104;28;1069;-61
2020/12/31 03:32:09;;;;;;;;;;;;;;;18.98;70.77;100221.22;5038290;28;1348;-63
2020/12/31 03:34:34;;;;;;;;;;;;;;;18.96;71.04;100215.16;5039701;28;1346;-61
2020/12/31 03:37:00;;;;;;;;;;;;;;;19.00;71.12;100229.94;5036092;28;1242;-63
2020/12/31 03:39:25;;;;;;;;;;;;;;;18.95;70.95;100224.19;5037142;28;1699;-60
2020/12/31 03:41:50;;;;;;;;;;;;;;;18.90;71.37;100231.84;5017500;28;1419;-64
2020/12/31 03:44:16;;;;;;;;;;;;;;;18.94;71.03;100218.97;5040805;28;1373;-60
2020/12/31 03:46:41;;;;;;;;;;;;;;;18.95;70.30;100210.78;5048045;28;1391;-60
2020/12/31 03:49:07;;;;;;;;;;;;;;;18.94;70.20;100210.91;5030157;28;1878;-64
2020/12/31 03:51:32;;;;;;;;;;;;;;;18.96;70.33;100200.91;5026705;28;1342;-60
2020/12/31 03:53:57;;;;;;;;;;;;;;;18.93;70.69;100206.56;5043562;28;1342;-60
2020/12/31 03:56:23;;;;;;;;;;;;;;;18.76;71.85;100208.16;5043702;28;1330;-64
2020/12/31 03:58:48;;;;;;;;;;;;;;;18.64;72.29;100221.75;5030598;28;10847;-61
2020/12/31 04:01:13;;;;;;;;;;;;;;;18.51;72.66;100220.38;5021312;28;1415;-64
2020/12/31 04:03:39;;;;;;;;;;;;;;;18.38;73.08;100226.03;5048481;28;11433;-64
2020/12/31 04:06:04;;;;;;;;;;;;;;;18.34;73.63;100208.56;5048554;28;11084;-61
2020/12/31 04:08:29;;;;;;;;;;;;;;;18.31;73.28;100214.22;5061164;28;10936;-60
2020/12/31 04:10:55;;;;;;;;;;;;;;;18.27;74.02;100219.03;5063059;28;1402;-64
2020/12/31 04:13:20;;;;;;;;;;;;;;;18.12;73.68;100204.41;5045262;28;11444;-60
2020/12/31 04:15:45;;;;;;;;;;;;;;;17.96;74.14;100203.16;5071652;28;10700;-60
2020/12/31 04:18:11;;;;;;;;;;;;;;;18.03;75.14;100217.66;5069686;28;1483;-64
2020/12/31 04:20:36;;;;;;;;;;;;;;;18.02;73.75;100217.78;5074208;28;1302;-60
2020/12/31 04:23:01;;;;;;;;;;;;;;;18.02;74.05;100209.75;5073356;28;1358;-60
2020/12/31 04:25:27;;;;;;;;;;;;;;;18.00;73.77;100217.09;5074124;28;1369;-60
2020/12/31 04:27:52;;;;;;;;;;;;;;;17.98;73.24;100211.88;5065013;28;10996;-64
2020/12/31 04:30:17;;;;;;;;;;;;;;;17.92;73.60;100214.28;5066221;28;10676;-60
2020/12/31 04:32:43;;;;;;;;;;;;;;;17.93;73.31;100213.31;5067581;28;1735;-64
2020/12/31 04:35:08;;;;;;;;;;;;;;;17.88;73.21;100216.38;5071493;28;1625;-64
2020/12/31 04:37:33;;;;;;;;;;;;;;;17.83;72.89;100214.16;5074014;28;1227;-60
2020/12/31 04:39:59;;;;;;;;;;;;;;;17.82;73.42;100209.75;5056355;28;1247;-64
2020/12/31 04:42:34;;;;;;;;;;;;;;;17.83;73.58;100216.81;5070320;28;1617;-64
2020/12/31 04:45:00;;;;;;;;;;;;;;;17.91;73.07;100204.59;5069820;28;1284;-60
2020/12/31 04:47:25;;;;;;;;;;;;;;;17.81;71.92;100210.75;5069965;28;1963;-60
2020/12/31 04:49:52;;;;;;;;;;;;;;;17.84;72.33;100215.81;5071964;28;1238;-61
2020/12/31 04:52:18;;;;;;;;;;;;;;;17.80;72.62;100213.53;5073241;28;1354;-64
2020/12/31 04:54:43;;;;;;;;;;;;;;;17.80;71.99;100211.72;5073929;28;1246;-60
2020/12/31 04:57:09;;;;;;;;;;;;;;;17.78;72.75;100211.00;5074025;28;1234;-60
2020/12/31 04:59:35;;;;;;;;;;;;;;;17.79;72.46;100203.84;5073516;28;1806;-64
2020/12/31 05:02:00;;;;;;;;;;;;;;;17.79;72.49;100215.38;5073118;28;1485;-60
2020/12/31 05:04:25;;;;;;;;;;;;;;;17.74;72.83;100208.75;5067908;28;1352;-60
2020/12/31 05:06:55;;;;;;;;;;;;;;;17.73;72.04;100215.94;5069934;28;1217;-64
2020/12/31 05:09:21;;;;;;;;;;;;;;;17.70;72.36;100213.53;5059124;28;1953;-60
2020/12/31 05:11:51;;;;;;;;;;;;;;;17.74;71.86;100222.13;5058945;28;1480;-60
2020/12/31 05:14:29;;;;;;;;;;;;;;;17.74;72.13;100201.56;5072543;28;1353;-65
2020/12/31 05:16:55;;;;;;;;;;;;;;;17.66;71.79;100217.47;5064104;28;1191;-60
2020/12/31 05:19:21;;;;;;;;;;;;;;;17.67;72.44;100221.88;5065743;28;1380;-60
2020/12/31 05:21:47;;;;;;;;;;;;;;;17.67;72.13;100232.56;5071283;28;1412;-60
2020/12/31 05:24:13;;;;;;;;;;;;;;;17.67;71.17;100213.84;5057487;28;1423;-61
2020/12/31 05:26:38;;;;;;;;;;;;;;;17.61;71.11;100209.06;5064408;28;1184;-64
2020/12/31 05:29:04;;;;;;;;;;;;;;;17.58;71.44;100209.31;5074497;28;1910;-64
2020/12/31 05:31:29;;;;;;;;;;;;;;;17.60;71.78;100220.72;5059614;28;1680;-60
2020/12/31 05:33:55;;;;;;;;;;;;;;;17.56;71.83;100214.81;5057508;28;797;-64
2020/12/31 05:36:21;;;;;;;;;;;;;;;17.57;71.58;100204.97;5058820;28;1228;-60
2020/12/31 05:39:02;;;;;;;;;;;;;;;17.56;71.54;100209.44;5071160;28;1294;-60
2020/12/31 05:41:37;;;;;;;;;;;;;;;17.57;71.35;100213.00;5063344;28;1243;-64
2020/12/31 05:44:07;;;;;;;;;;;;;;;17.54;71.24;100215.94;5074041;28;1605;-60
2020/12/31 05:46:33;;;;;;;;;;;;;;;17.57;70.99;100207.66;5075416;28;812;-60
2020/12/31 05:49:00;;;;;;;;;;;;;;;17.59;71.06;100213.69;5074103;28;1885;-60
2020/12/31 05:51:29;;;;;;;;;;;;;;;17.58;70.98;100207.47;5055296;28;757;-63
2020/12/31 05:54:04;;;;;;;;;;;;;;;17.58;71.56;100195.94;5055137;28;1473;-64
2020/12/31 05:56:31;;;;;;;;;;;;;;;17.56;71.73;100204.09;4982060;28;11006;-64
2020/12/31 05:59:00;;;;;;;;;;;;;;;17.54;70.44;100211.44;5042025;28;10502;-64
2020/12/31 06:01:29;;;;;;;;;;;;;;;17.56;71.65;100211.28;5056245;28;1326;-65
2020/12/31 06:04:10;;;;;;;;;;;;;;;17.52;71.07;100205.38;5058815;28;1005;-60
2020/12/31 06:06:46;;;;;;;;;;;;;;;17.49;71.22;100213.69;5069402;28;1562;-60
2020/12/31 06:09:16;;;;;;;;;;;;;;;17.50;71.18;100218.03;5051997;28;1901;-60
2020/12/31 06:11:50;;;;;;;;;;;;;;;17.44;71.12;100219.44;5059514;28;1597;-60
2020/12/31 06:14:19;;;;;;;;;;;;;;;17.46;70.97;100219.31;5076449;28;1765;-64
2020/12/31 06:16:53;;;;;;;;;;;;;;;17.50;70.32;100226.06;5075043;28;781;-60
2020/12/31 06:19:31;;;;;;;;;;;;;;;17.39;70.24;100224.38;5075580;28;1340;-64
2020/12/31 06:22:00;;;;;;;;;;;;;;;17.47;70.26;100219.16;5072045;28;1528;-60
2020/12/31 06:24:31;;;;;;;;;;;;;;;17.52;71.31;100212.56;5066101;28;1326;-65
2020/12/31 06:26:58;;;;;;;;;;;;;;;17.53;71.04;100209.75;5072397;28;1395;-60
2020/12/31 06:29:24;;;;;;;;;;;;;;;17.47;70.58;100203.13;5074424;28;1980;-60
2020/12/31 06:31:50;;;;;;;;;;;;;;;17.50;70.83;100202.00;5065288;28;1322;-64
2020/12/31 06:34:18;;;;;;;;;;;;;;;17.46;71.07;100198.75;5069241;28;1259;-64
2020/12/31 06:36:44;;;;;;;;;;;;;;;17.47;70.57;100204.97;5070840;28;1451;-61
2020/12/31 06:39:18;;;;;;;;;;;;;;;17.43;71.04;100191.03;5073165;28;1350;-65
2020/12/31 06:41:43;;;;;;;;;;;;;;;17.53;70.03;100203.53;5070824;28;1712;-63
2020/12/31 06:44:18;;;;;;;;;;;;;;;17.53;69.88;100192.84;5072647;28;1298;-64
2020/12/31 06:46:44;;;;;;;;;;;;;;;17.53;70.60;100200.88;5070161;28;1512;-64
2020/12/31 06:49:11;;;;;;;;;;;;;;;17.58;69.50;100194.13;5060347;28;1972;-60
2020/12/31 06:51:36;;;;;;;;;;;;;;;17.56;70.60;100201.44;5065691;28;1326;-65
2020/12/31 06:54:02;;;;;;;;;;;;;;;17.57;69.46;100171.06;5059630;28;1163;-65
2020/12/31 06:56:47;;;;;;;;;;;;;;;17.55;69.82;100180.19;5056167;28;1637;-60
2020/12/31 06:59:26;;;;;;;;;;;;;;;17.63;70.20;100191.03;5070144;28;1833;-60
2020/12/31 07:01:51;;;;;;;;;;;;;;;17.62;70.41;100184.81;5073031;28;1496;-60
2020/12/31 07:04:31;;;;;;;;;;;;;;;17.66;69.70;100164.00;5075709;28;1253;-65
2020/12/31 07:06:57;;;;;;;;;;;;;;;17.68;69.92;100184.25;5074421;28;1415;-60
2020/12/31 07:09:31;;;;;;;;;;;;;;;17.58;70.55;100174.56;5074511;28;1983;-60
2020/12/31 07:11:57;;;;;;;;;;;;;;;17.60;70.97;100188.63;5066442;28;1406;-60
2020/12/31 07:14:25;;;;;;;;;;;;;;;17.60;69.84;100183.28;5059737;28;11400;-60
2020/12/31 07:16:59;;;;;;;;;;;;;;;17.66;70.34;100182.72;5074085;28;1485;-60
2020/12/31 07:19:31;;;;;;;;;;;;;;;17.72;69.51;100184.00;5073221;28;1745;-60
2020/12/31 07:21:56;;;;;;;;;;;;;;;17.73;70.53;100173.16;5056699;28;1425;-64
2020/12/31 07:24:22;;;;;;;;;;;;;;;17.67;70.26;100189.78;5050314;28;1467;-64
2020/12/31 07:26:48;;;;;;;;;;;;;;;17.76;70.14;100194.25;4705232;28;10000070;-64
2020/12/31 07:29:13;;;;;;;;;;;;;;;17.69;70.03;100187.81;5052281;28;10639;-65
2020/12/31 07:31:39;;;;;;;;;;;;;;;17.70;70.96;100184.97;5056450;28;1396;-65
2020/12/31 07:34:20;;;;;;;;;;;;;;;17.78;70.97;100173.56;5058458;28;1196;-65
2020/12/31 07:36:56;;;;;;;;;;;;;;;17.84;71.36;100181.03;5066986;28;1684;-61
2020/12/31 07:39:21;;;;;;;;;;;;;;;17.93;70.84;100157.97;5059593;28;1479;-59
2020/12/31 07:41:47;;;;;;;;;;;;;;;17.83;70.93;100168.69;5056590;28;990;-60
2020/12/31 07:44:12;;;;;;;;;;;;;;;17.95;71.17;100176.56;5042837;28;1633;-60
2020/12/31 07:46:39;;;;;;;;;;;;;;;18.17;71.68;100164.69;5063070;28;1719;-60
2020/12/31 07:49:09;;;;;;;;;;;;;;;18.24;71.40;100172.00;5061056;28;1955;-67
2020/12/31 07:51:34;;;;;;;;;;;;;;;18.25;71.03;100172.84;5058511;28;1455;-69
2020/12/31 07:54:00;;;;;;;;;;;;;;;18.28;71.67;100160.00;5060651;28;1221;-61
2020/12/31 07:56:26;;;;;;;;;;;;;;;18.37;71.99;100160.13;5059747;28;1378;-67
2020/12/31 07:58:52;;;;;;;;;;;;;;;18.37;72.51;100166.31;5054171;28;1606;-60
2020/12/31 08:01:22;;;;;;;;;;;;;;;18.40;71.61;100149.97;5055723;28;1412;-61
2020/12/31 08:03:47;;;;;;;;;;;;;;;18.43;71.58;100160.38;5061057;28;1451;-63
2020/12/31 08:06:13;;;;;;;;;;;;;;;18.47;71.61;100167.13;5026643;28;11212;-59
2020/12/31 08:08:41;;;;;;;;;;;;;;;18.46;71.69;100173.47;5053633;28;1981;-59
2020/12/31 08:11:09;;;;;;;;;;;;;;;18.54;72.85;100162.00;5054435;28;1360;-62
2020/12/31 08:13:35;;;;;;;;;;;;;;;18.58;70.58;100158.06;5051014;28;1443;-62
2020/12/31 08:16:01;;;;;;;;;;;;;;;18.62;70.57;100162.13;5056961;28;1514;-59
2020/12/31 08:18:26;;;;;;;;;;;;;;;18.61;71.07;100162.28;5052321;28;1388;-64
2020/12/31 08:20:53;;;;;;;;;;;;;;;18.62;69.93;100147.88;5060623;28;1452;-59
2020/12/31 08:23:20;;;;;;;;;;;;;;;18.66;69.75;100136.75;5043999;28;1009;-62
2020/12/31 08:25:47;;;;;;;;;;;;;;;18.64;70.45;100144.09;5060099;28;2441;-61
2020/12/31 08:28:16;;;;;;;;;;;;;;;18.68;70.24;100132.09;5053947;28;1918;-62
2020/12/31 08:30:42;;;;;;;;;;;;;;;18.74;69.92;100151.22;5067640;28;1215;-59
2020/12/31 08:33:10;;;;;;;;;;;;;;;18.73;69.47;100144.19;5069735;28;1464;-60
2020/12/31 08:35:38;;;;;;;;;;;;;;;18.84;68.97;100135.97;5075076;28;1413;-59
2020/12/31 08:38:06;;;;;;;;;;;;;;;19.01;68.33;100132.47;5066984;28;1536;-61
2020/12/31 08:40:33;;;;;;;;;;;;;;;19.02;67.89;100123.47;5067529;28;1270;-59
2020/12/31 08:42:58;;;;;;;;;;;;;;;18.98;67.11;100121.22;5071656;28;1068;-60
2020/12/31 08:45:28;;;;;;;;;;;;;;;18.96;67.22;100126.75;5065756;28;817;-60
2020/12/31 08:48:26;;;;;;;;;;;;;;;19.00;67.50;100136.16;5072321;28;1893;-60
2020/12/31 08:51:18;;;;;;;;;;;;;;;19.08;66.92;100108.63;5036661;28;1589;-60
2020/12/31 08:54:00;;;;;;;;;;;;;;;19.10;67.04;100109.31;5070397;28;1638;-60
2020/12/31 08:56:26;;;;;;;;;;;;;;;19.13;67.03;100108.16;5073161;28;1330;-59
2020/12/31 08:59:04;;;;;;;;;;;;;;;19.19;66.65;100120.94;5073307;28;1370;-59
2020/12/31 09:01:30;;;;;;;;;;;;;;;19.26;66.85;100097.91;5074058;28;1511;-60
2020/12/31 09:04:08;;;;;;;;;;;;;;;19.44;66.86;100106.75;5078203;28;1172;-61
2020/12/31 09:06:34;;;;;;;;;;;;;;;19.42;66.63;100111.44;5075361;28;1541;-59
2020/12/31 09:08:59;;;;;;;;;;;;;;;19.31;66.76;100110.84;5067482;28;1955;-59
2020/12/31 09:11:25;;;;;;;;;;;;;;;19.29;67.32;100100.25;5076387;28;1895;-59
2020/12/31 09:13:51;;;;;;;;;;;;;;;19.32;67.03;100104.47;5069088;28;1628;-59
2020/12/31 09:16:16;;;;;;;;;;;;;;;19.30;66.97;100104.63;5076988;28;1371;-59
2020/12/31 09:18:43;;;;;;;;;;;;;;;19.28;67.05;100117.34;5076939;28;1421;-59
2020/12/31 09:21:09;;;;;;;;;;;;;;;19.27;67.29;100104.94;5076130;28;1426;-59
2020/12/31 09:23:35;;;;;;;;;;;;;;;19.26;67.26;100103.25;5059748;28;1484;-59
2020/12/31 09:26:00;;;;;;;;;;;;;;;19.23;67.52;100101.69;5075979;28;1549;-61
2020/12/31 09:28:26;;;;;;;;;;;;;;;19.35;66.43;100094.28;5068856;28;1909;-59
2020/12/31 09:30:55;;;;;;;;;;;;;;;19.36;66.19;100114.75;5075506;28;1293;-59
2020/12/31 09:33:21;;;;;;;;;;;;;;;19.36;65.87;100084.38;5075904;28;1623;-59
2020/12/31 09:35:46;;;;;;;;;;;;;;;19.41;66.09;100096.34;5076900;28;1449;-59
2020/12/31 09:38:12;;;;;;;;;;;;;;;19.40;66.24;100091.16;5076397;28;1274;-59
2020/12/31 09:40:37;;;;;;;;;;;;;;;19.40;65.83;100088.47;5076620;28;1509;-59
2020/12/31 09:43:03;;;;;;;;;;;;;;;19.37;66.10;100083.41;5075998;28;1501;-59
2020/12/31 09:45:31;;;;;;;;;;;;;;;19.42;65.46;100087.31;5076470;28;1492;-59
2020/12/31 09:48:00;;;;;;;;;;;;;;;19.36;65.96;100087.94;5076753;28;1945;-59
2020/12/31 09:50:26;;;;;;;;;;;;;;;19.39;65.62;100086.78;5074923;28;1426;-59
2020/12/31 09:52:51;;;;;;;;;;;;;;;19.41;65.43;100074.06;5073499;28;1369;-59
2020/12/31 09:55:17;;;;;;;;;;;;;;;19.40;65.47;100067.84;5072020;28;1437;-59
2020/12/31 09:57:42;;;;;;;;;;;;;;;19.33;65.83;100076.66;5072191;28;1484;-59
2020/12/31 10:00:08;;;;;;;;;;;;;;;19.46;65.37;100066.41;5071475;28;1458;-59
2020/12/31 10:02:33;;;;;;;;;;;;;;;19.53;65.58;100055.88;5075783;28;1415;-58
2020/12/31 10:04:59;;;;;;;;;;;;;;;19.58;66.04;100056.25;5058307;28;1247;-60
2020/12/31 10:07:25;;;;;;;;;;;;;;;19.61;65.48;100050.56;5073684;28;1390;-58
2020/12/31 10:09:50;;;;;;;;;;;;;;;19.57;66.07;100065.28;5076597;28;1882;-60
2020/12/31 10:12:15;;;;;;;;;;;;;;;19.61;66.26;100074.72;5075340;28;1274;-70
2020/12/31 10:14:41;;;;;;;;;;;;;;;19.67;67.30;100063.34;5075533;28;1580;-57
2020/12/31 10:17:07;;;;;;;;;;;;;;;19.72;64.10;100044.16;5075385;28;1469;-58
2020/12/31 10:19:33;;;;;;;;;;;;;;;19.70;65.68;100064.91;5075184;28;1710;-61
2020/12/31 10:21:58;;;;;;;;;;;;;;;19.69;65.57;100045.25;5075291;28;1481;-64
2020/12/31 10:24:24;;;;;;;;;;;;;;;19.65;65.53;100055.44;5055950;28;1489;-58
2020/12/31 10:26:49;;;;;;;;;;;;;;;19.53;66.08;100045.97;5071330;28;1333;-58
2020/12/31 10:29:15;;;;;;;;;;;;;;;19.47;65.87;100041.25;5041968;28;1898;-58
2020/12/31 10:31:42;;;;;;;;;;;;;;;19.51;66.09;100055.19;5050529;28;1395;-58
2020/12/31 10:34:08;;;;;;;;;;;;;;;19.55;65.93;100056.56;5066738;28;1632;-59
2020/12/31 10:36:33;;;;;;;;;;;;;;;19.57;66.04;100046.53;5075095;28;1188;-56
2020/12/31 10:38:58;;;;;;;;;;;;;;;19.55;66.36;100060.06;5074169;28;1358;-58
2020/12/31 10:41:24;;;;;;;;;;;;;;;19.47;65.88;100047.44;5075016;28;1262;-58
2020/12/31 10:43:49;;;;;;;;;;;;;;;19.46;66.20;100035.06;5074752;28;1246;-58
2020/12/31 10:46:20;;;;;;;;;;;;;;;19.41;66.29;100041.88;5074962;28;1493;-57
2020/12/31 10:48:45;;;;;;;;;;;;;;;19.40;66.12;100038.34;5074890;28;1958;-58
2020/12/31 10:51:10;;;;;;;;;;;;;;;19.34;66.25;100030.06;5074049;28;1239;-59
2020/12/31 10:53:36;;;;;;;;;;;;;;;19.31;65.68;100047.31;5072769;28;1246;-57
2020/12/31 10:56:01;;;;;;;;;;;;;;;19.26;66.26;100034.41;5074191;28;1219;-58
2020/12/31 10:58:27;;;;;;;;;;;;;;;19.36;63.76;100044.16;5073888;28;1334;-59
2020/12/31 11:00:52;;;;;;;;;;;;;;;19.36;64.44;100038.81;5074452;28;1302;-64
2020/12/31 11:03:17;;;;;;;;;;;;;;;19.30;65.11;100026.91;5074027;28;1499;-58
2020/12/31 11:05:43;;;;;;;;;;;;;;;19.29;65.00;100027.88;5057222;28;1277;-59
2020/12/31 11:08:08;;;;;;;;;;;;;;;19.24;64.45;100009.59;5074413;28;1886;-61
2020/12/31 11:10:33;;;;;;;;;;;;;;;19.29;64.42;100006.44;5033306;28;618352;-58
2020/12/31 11:13:01;;;;;;;;;;;;;;;19.34;64.18;100012.19;5075042;28;1331;-56
2020/12/31 11:15:26;;;;;;;;;;;;;;;19.38;64.23;100005.50;5075605;28;1461;-60
2020/12/31 11:17:51;;;;;;;;;;;;;;;19.37;64.42;100006.47;5074480;28;1543;-59
2020/12/31 11:20:17;;;;;;;;;;;;;;;19.29;64.69;100006.44;5074686;28;1529;-57
2020/12/31 11:22:42;;;;;;;;;;;;;;;19.30;64.67;100002.75;5075267;28;1450;-61
2020/12/31 11:25:07;;;;;;;;;;;;;;;19.30;65.04;100004.59;5075309;28;888;-60
2020/12/31 11:27:33;;;;;;;;;;;;;;;19.22;65.05;99990.13;5074731;28;1971;-64
2020/12/31 11:29:58;;;;;;;;;;;;;;;19.17;64.59;99992.44;5070127;28;1548;-59
2020/12/31 11:32:23;;;;;;;;;;;;;;;19.11;65.19;99997.59;5072102;28;1501;-57
2020/12/31 11:34:49;;;;;;;;;;;;;;;19.04;65.23;100014.28;5075206;28;1449;-60
2020/12/31 11:37:14;;;;;;;;;;;;;;;18.98;64.62;99982.75;5075474;28;781;-57
2020/12/31 11:39:39;;;;;;;;;;;;;;;18.94;65.25;99986.72;5074317;28;1176;-58
2020/12/31 11:42:05;;;;;;;;;;;;;;;18.91;64.04;99992.38;5074972;28;1520;-57
2020/12/31 11:44:30;;;;;;;;;;;;;;;18.93;64.68;100001.09;5074821;28;1226;-60
2020/12/31 11:46:59;;;;;;;;;;;;;;;18.89;64.82;99989.00;5074311;28;1218;-58
2020/12/31 11:49:25;;;;;;;;;;;;;;;18.95;64.18;99998.28;5074570;28;1962;-57
2020/12/31 11:51:55;;;;;;;;;;;;;;;18.87;64.24;99985.66;5075148;28;844;-59
2020/12/31 11:54:21;;;;;;;;;;;;;;;18.85;65.32;99984.97;5075653;28;1397;-57
2020/12/31 11:56:46;;;;;;;;;;;;;;;18.86;65.00;99986.63;5075043;28;896;-57
2020/12/31 11:59:11;;;;;;;;;;;;;;;18.86;64.99;99983.94;5078638;28;1580;-59
2020/12/31 12:01:37;;;;;;;;;;;;;;;18.85;64.31;99982.28;5074831;28;1454;-57
2020/12/31 12:04:02;;;;;;;;;;;;;;;18.91;64.83;99962.91;5074781;28;1517;-59
2020/12/31 12:06:28;;;;;;;;;;;;;;;18.92;64.71;99966.44;5074214;28;1549;-58
2020/12/31 12:08:53;;;;;;;;;;;;;;;18.88;64.64;99974.78;5074229;28;1909;-60
2020/12/31 12:11:18;;;;;;;;;;;;;;;18.88;64.74;99982.00;5074088;28;1296;-59
2020/12/31 12:13:43;;;;;;;;;;;;;;;18.87;64.69;99973.09;5074469;28;1509;-57
2020/12/31 12:16:09;;;;;;;;;;;;;;;18.84;64.80;99960.03;5074298;28;1465;-59
2020/12/31 12:18:34;;;;;;;;;;;;;;;18.84;64.48;99975.22;5073402;28;1658;-59
2020/12/31 12:21:00;;;;;;;;;;;;;;;18.87;64.42;99977.63;5074500;28;1258;-57
2020/12/31 12:23:25;;;;;;;;;;;;;;;18.88;64.09;99987.34;5072840;28;1458;-57
2020/12/31 12:25:50;;;;;;;;;;;;;;;18.91;63.87;99991.56;5058132;28;1380;-57
2020/12/31 12:28:16;;;;;;;;;;;;;;;18.85;64.29;99983.13;5072099;28;1896;-57
2020/12/31 12:30:41;;;;;;;;;;;;;;;18.90;63.13;99979.13;5073216;28;1350;-59
2020/12/31 12:33:07;;;;;;;;;;;;;;;18.90;63.40;99974.63;5073200;28;1203;-57
2020/12/31 12:35:33;;;;;;;;;;;;;;;18.90;63.51;99982.69;5073968;28;1544;-57
2020/12/31 12:37:58;;;;;;;;;;;;;;;18.92;63.81;99991.41;5074185;28;1132;-57
2020/12/31 12:40:24;;;;;;;;;;;;;;;18.91;63.79;99991.56;5074018;28;1461;-57
2020/12/31 12:42:49;;;;;;;;;;;;;;;18.91;64.18;99981.66;5073383;28;1390;-57
2020/12/31 12:45:15;;;;;;;;;;;;;;;18.90;64.56;99980.00;5074167;28;1520;-59
2020/12/31 12:47:40;;;;;;;;;;;;;;;18.89;64.97;99986.34;5072497;28;1952;-60
2020/12/31 12:50:07;;;;;;;;;;;;;;;18.90;65.06;99981.81;5072065;28;1222;-56